sensor_id;sensor_type;location;lat;lon;timestamp;P1;P2;P0
46302;PMS7003;32029;51.358;5.628;2024-01-06T00:00:30;51.00;41.67;25.00
46302;PMS7003;32029;51.358;5.628;2024-01-06T00:02:57;48.00;41.33;25.67
46302;PMS7003;32029;51.358;5.628;2024-01-06T00:05:24;42.33;39.00;25.67
46302;PMS7003;32029;51.358;5.628;2024-01-06T00:07:51;45.67;39.00;25.33
46302;PMS7003;32029;51.358;5.628;2024-01-06T00:10:18;43.33;37.33;24.00
46302;PMS7003;32029;51.358;5.628;2024-01-06T00:12:45;38.67;34.00;24.00
46302;PMS7003;32029;51.358;5.628;2024-01-06T00:15:12;47.00;38.67;23.67
46302;PMS7003;32029;51.358;5.628;2024-01-06T00:17:39;49.67;40.00;24.00
46302;PMS7003;32029;51.358;5.628;2024-01-06T00:20:06;38.00;35.00;22.33
46302;PMS7003;32029;51.358;5.628;2024-01-06T00:22:34;28.50;26.50;9.00
46302;PMS7003;32029;51.358;5.628;2024-01-06T00:25:02;40.00;35.25;22.75
46302;PMS7003;32029;51.358;5.628;2024-01-06T00:27:30;40.75;37.00;22.00
46302;PMS7003;32029;51.358;5.628;2024-01-06T00:29:58;43.67;37.67;24.00
46302;PMS7003;32029;51.358;5.628;2024-01-06T00:32:25;46.33;35.67;21.33
46302;PMS7003;32029;51.358;5.628;2024-01-06T00:34:53;38.25;36.00;24.50
46302;PMS7003;32029;51.358;5.628;2024-01-06T00:37:21;45.50;37.00;23.75
46302;PMS7003;32029;51.358;5.628;2024-01-06T00:39:48;37.67;33.67;24.67
46302;PMS7003;32029;51.358;5.628;2024-01-06T00:42:16;42.75;39.00;24.50
46302;PMS7003;32029;51.358;5.628;2024-01-06T00:44:44;48.33;39.00;21.33
46302;PMS7003;32029;51.358;5.628;2024-01-06T00:47:12;39.50;34.75;23.00
46302;PMS7003;32029;51.358;5.628;2024-01-06T00:49:40;40.50;34.75;20.75
46302;PMS7003;32029;51.358;5.628;2024-01-06T00:52:08;47.25;37.75;23.00
46302;PMS7003;32029;51.358;5.628;2024-01-06T00:54:35;28.00;24.50;12.50
46302;PMS7003;32029;51.358;5.628;2024-01-06T00:57:03;35.67;32.67;21.00
46302;PMS7003;32029;51.358;5.628;2024-01-06T00:59:31;39.25;31.75;20.00
46302;PMS7003;32029;51.358;5.628;2024-01-06T01:01:58;31.33;27.00;19.00
46302;PMS7003;32029;51.358;5.628;2024-01-06T01:04:26;34.50;31.75;17.25
46302;PMS7003;32029;51.358;5.628;2024-01-06T01:06:54;32.67;26.67;16.00
46302;PMS7003;32029;51.358;5.628;2024-01-06T01:09:21;33.33;29.33;18.67
46302;PMS7003;32029;51.358;5.628;2024-01-06T01:11:49;37.00;29.00;19.50
46302;PMS7003;32029;51.358;5.628;2024-01-06T01:14:17;33.75;28.25;19.50
46302;PMS7003;32029;51.358;5.628;2024-01-06T01:16:46;34.00;25.00;16.33
46302;PMS7003;32029;51.358;5.628;2024-01-06T01:19:13;29.33;29.33;16.00
46302;PMS7003;32029;51.358;5.628;2024-01-06T01:21:41;35.25;26.50;16.75
46302;PMS7003;32029;51.358;5.628;2024-01-06T01:24:09;29.00;26.67;17.00
46302;PMS7003;32029;51.358;5.628;2024-01-06T01:26:36;24.00;22.33;13.67
46302;PMS7003;32029;51.358;5.628;2024-01-06T01:29:03;31.00;25.00;17.33
46302;PMS7003;32029;51.358;5.628;2024-01-06T01:31:31;32.67;30.33;21.00
46302;PMS7003;32029;51.358;5.628;2024-01-06T01:33:59;30.00;26.00;16.75
46302;PMS7003;32029;51.358;5.628;2024-01-06T01:36:25;31.00;29.67;19.00
46302;PMS7003;32029;51.358;5.628;2024-01-06T01:38:52;27.67;25.33;16.00
46302;PMS7003;32029;51.358;5.628;2024-01-06T01:41:20;33.75;30.75;17.50
46302;PMS7003;32029;51.358;5.628;2024-01-06T01:43:48;32.33;29.00;18.00
46302;PMS7003;32029;51.358;5.628;2024-01-06T01:46:16;32.67;25.33;19.33
46302;PMS7003;32029;51.358;5.628;2024-01-06T01:48:43;40.67;32.67;17.67
46302;PMS7003;32029;51.358;5.628;2024-01-06T01:51:11;35.67;31.67;21.00
46302;PMS7003;32029;51.358;5.628;2024-01-06T01:53:39;38.00;30.67;19.00
46302;PMS7003;32029;51.358;5.628;2024-01-06T01:56:08;43.33;32.67;20.00
46302;PMS7003;32029;51.358;5.628;2024-01-06T01:58:36;40.67;31.00;21.33
46302;PMS7003;32029;51.358;5.628;2024-01-06T02:01:04;34.25;26.00;17.00
46302;PMS7003;32029;51.358;5.628;2024-01-06T02:03:31;35.00;30.00;20.00
46302;PMS7003;32029;51.358;5.628;2024-01-06T02:06:00;32.00;25.67;16.00
46302;PMS7003;32029;51.358;5.628;2024-01-06T02:08:27;34.33;29.33;19.33
46302;PMS7003;32029;51.358;5.628;2024-01-06T02:10:55;41.25;31.75;19.50
46302;PMS7003;32029;51.358;5.628;2024-01-06T02:13:23;39.67;34.00;21.67
46302;PMS7003;32029;51.358;5.628;2024-01-06T02:15:50;37.67;32.00;22.67
46302;PMS7003;32029;51.358;5.628;2024-01-06T02:18:20;31.33;29.00;17.67
46302;PMS7003;32029;51.358;5.628;2024-01-06T02:20:47;29.33;29.33;19.67
46302;PMS7003;32029;51.358;5.628;2024-01-06T02:23:18;33.00;26.00;16.00
46302;PMS7003;32029;51.358;5.628;2024-01-06T02:25:46;32.00;30.67;17.00
46302;PMS7003;32029;51.358;5.628;2024-01-06T02:28:15;42.67;35.00;21.00
46302;PMS7003;32029;51.358;5.628;2024-01-06T02:30:43;37.67;30.67;17.00
46302;PMS7003;32029;51.358;5.628;2024-01-06T02:33:10;39.00;31.67;20.00
46302;PMS7003;32029;51.358;5.628;2024-01-06T02:35:37;29.67;24.33;16.67
46302;PMS7003;32029;51.358;5.628;2024-01-06T02:38:07;39.67;28.00;16.33
46302;PMS7003;32029;51.358;5.628;2024-01-06T02:40:36;35.00;30.67;19.33
46302;PMS7003;32029;51.358;5.628;2024-01-06T02:43:04;37.00;32.00;17.00
46302;PMS7003;32029;51.358;5.628;2024-01-06T02:45:31;33.33;25.33;16.00
46302;PMS7003;32029;51.358;5.628;2024-01-06T02:47:58;34.00;27.33;19.33
46302;PMS7003;32029;51.358;5.628;2024-01-06T02:50:25;34.67;31.67;18.33
46302;PMS7003;32029;51.358;5.628;2024-01-06T02:52:52;30.67;26.33;18.00
46302;PMS7003;32029;51.358;5.628;2024-01-06T02:55:19;27.67;23.67;16.00
46302;PMS7003;32029;51.358;5.628;2024-01-06T02:57:46;33.33;27.67;16.67
46302;PMS7003;32029;51.358;5.628;2024-01-06T03:00:14;25.67;24.67;17.00
46302;PMS7003;32029;51.358;5.628;2024-01-06T03:02:42;32.00;28.67;17.00
46302;PMS7003;32029;51.358;5.628;2024-01-06T03:05:09;33.50;27.00;15.00
46302;PMS7003;32029;51.358;5.628;2024-01-06T03:07:37;34.00;27.00;16.00
46302;PMS7003;32029;51.358;5.628;2024-01-06T03:10:05;31.25;27.50;16.75
46302;PMS7003;32029;51.358;5.628;2024-01-06T03:12:33;33.67;27.00;19.33
46302;PMS7003;32029;51.358;5.628;2024-01-06T03:15:00;30.67;24.33;16.00
46302;PMS7003;32029;51.358;5.628;2024-01-06T03:17:27;33.00;23.33;13.00
46302;PMS7003;32029;51.358;5.628;2024-01-06T03:19:55;18.33;17.00;13.00
46302;PMS7003;32029;51.358;5.628;2024-01-06T03:22:22;20.00;18.33;13.00
46302;PMS7003;32029;51.358;5.628;2024-01-06T03:24:49;25.50;21.50;12.50
46302;PMS7003;32029;51.358;5.628;2024-01-06T03:27:16;26.67;24.00;15.00
46302;PMS7003;32029;51.358;5.628;2024-01-06T03:29:43;26.33;24.67;13.33
46302;PMS7003;32029;51.358;5.628;2024-01-06T03:32:10;22.67;20.67;13.33
46302;PMS7003;32029;51.358;5.628;2024-01-06T03:34:37;25.00;21.50;15.00
46302;PMS7003;32029;51.358;5.628;2024-01-06T03:37:04;21.67;20.67;12.00
46302;PMS7003;32029;51.358;5.628;2024-01-06T03:39:31;26.00;22.00;15.00
46302;PMS7003;32029;51.358;5.628;2024-01-06T03:41:59;25.00;20.33;15.00
46302;PMS7003;32029;51.358;5.628;2024-01-06T03:44:27;12.67;11.00;8.00
46302;PMS7003;32029;51.358;5.628;2024-01-06T03:46:59;26.00;21.00;12.00
46302;PMS7003;32029;51.358;5.628;2024-01-06T03:49:26;24.67;22.00;15.00
46302;PMS7003;32029;51.358;5.628;2024-01-06T03:51:54;28.00;23.50;14.00
46302;PMS7003;32029;51.358;5.628;2024-01-06T03:54:21;19.00;18.00;12.00
46302;PMS7003;32029;51.358;5.628;2024-01-06T03:56:49;19.33;17.00;10.33
46302;PMS7003;32029;51.358;5.628;2024-01-06T03:59:16;20.00;15.00;10.50
46302;PMS7003;32029;51.358;5.628;2024-01-06T04:01:43;23.67;18.00;11.33
46302;PMS7003;32029;51.358;5.628;2024-01-06T04:04:10;22.00;19.33;15.00
46302;PMS7003;32029;51.358;5.628;2024-01-06T04:06:37;18.00;15.50;10.00
46302;PMS7003;32029;51.358;5.628;2024-01-06T04:09:04;20.67;11.00;8.00
46302;PMS7003;32029;51.358;5.628;2024-01-06T04:11:32;19.33;15.67;11.00
46302;PMS7003;32029;51.358;5.628;2024-01-06T04:13:59;21.67;15.33;7.33
46302;PMS7003;32029;51.358;5.628;2024-01-06T04:16:27;18.33;18.33;10.33
46302;PMS7003;32029;51.358;5.628;2024-01-06T04:18:54;21.00;17.67;11.67
46302;PMS7003;32029;51.358;5.628;2024-01-06T04:21:21;20.67;17.67;11.00
46302;PMS7003;32029;51.358;5.628;2024-01-06T04:23:48;17.67;15.00;9.33
46302;PMS7003;32029;51.358;5.628;2024-01-06T04:26:15;20.00;16.33;7.00
46302;PMS7003;32029;51.358;5.628;2024-01-06T04:28:42;16.33;16.33;10.00
46302;PMS7003;32029;51.358;5.628;2024-01-06T04:31:09;12.00;11.67;7.00
46302;PMS7003;32029;51.358;5.628;2024-01-06T04:33:36;18.00;14.00;10.00
46302;PMS7003;32029;51.358;5.628;2024-01-06T04:36:03;15.00;13.00;9.00
46302;PMS7003;32029;51.358;5.628;2024-01-06T04:38:31;10.60;10.60;7.00
46302;PMS7003;32029;51.358;5.628;2024-01-06T04:40:59;10.40;10.40;7.00
46302;PMS7003;32029;51.358;5.628;2024-01-06T04:43:26;15.33;15.00;9.33
46302;PMS7003;32029;51.358;5.628;2024-01-06T04:45:53;13.80;12.20;7.80
46302;PMS7003;32029;51.358;5.628;2024-01-06T04:48:21;9.60;7.80;6.80
46302;PMS7003;32029;51.358;5.628;2024-01-06T04:50:49;13.40;13.40;8.60
46302;PMS7003;32029;51.358;5.628;2024-01-06T04:53:16;15.00;14.00;8.33
46302;PMS7003;32029;51.358;5.628;2024-01-06T04:55:43;9.33;9.33;5.00
46302;PMS7003;32029;51.358;5.628;2024-01-06T04:58:10;14.33;14.33;9.00
46302;PMS7003;32029;51.358;5.628;2024-01-06T05:00:37;15.00;15.00;9.67
46302;PMS7003;32029;51.358;5.628;2024-01-06T05:03:04;14.00;13.33;8.33
46302;PMS7003;32029;51.358;5.628;2024-01-06T05:05:32;10.60;10.60;8.20
46302;PMS7003;32029;51.358;5.628;2024-01-06T05:07:59;11.67;11.67;7.00
46302;PMS7003;32029;51.358;5.628;2024-01-06T05:10:26;18.67;18.67;10.00
46302;PMS7003;32029;51.358;5.628;2024-01-06T05:12:53;16.67;15.67;9.33
46302;PMS7003;32029;51.358;5.628;2024-01-06T05:15:20;11.00;11.00;7.00
46302;PMS7003;32029;51.358;5.628;2024-01-06T05:17:48;21.00;15.67;6.00
46302;PMS7003;32029;51.358;5.628;2024-01-06T05:20:15;18.67;18.67;11.00
46302;PMS7003;32029;51.358;5.628;2024-01-06T05:22:42;18.33;18.33;10.33
46302;PMS7003;32029;51.358;5.628;2024-01-06T05:25:08;22.00;19.00;14.33
46302;PMS7003;32029;51.358;5.628;2024-01-06T05:27:37;17.67;17.67;13.00
46302;PMS7003;32029;51.358;5.628;2024-01-06T05:30:04;18.00;17.33;11.00
46302;PMS7003;32029;51.358;5.628;2024-01-06T05:32:31;19.33;18.67;10.00
46302;PMS7003;32029;51.358;5.628;2024-01-06T05:34:58;20.67;19.00;13.00
46302;PMS7003;32029;51.358;5.628;2024-01-06T05:37:24;14.33;13.67;9.00
46302;PMS7003;32029;51.358;5.628;2024-01-06T05:39:51;16.67;16.33;11.00
46302;PMS7003;32029;51.358;5.628;2024-01-06T05:42:18;15.00;15.00;9.00
46302;PMS7003;32029;51.358;5.628;2024-01-06T05:44:45;17.00;17.00;9.67
46302;PMS7003;32029;51.358;5.628;2024-01-06T05:47:12;18.00;15.67;10.00
46302;PMS7003;32029;51.358;5.628;2024-01-06T05:49:41;17.00;14.00;9.00
46302;PMS7003;32029;51.358;5.628;2024-01-06T05:52:10;14.00;14.00;10.00
46302;PMS7003;32029;51.358;5.628;2024-01-06T05:54:39;13.67;13.67;9.00
46302;PMS7003;32029;51.358;5.628;2024-01-06T05:57:08;11.00;9.00;6.00
46302;PMS7003;32029;51.358;5.628;2024-01-06T05:59:35;11.60;11.60;6.80
46302;PMS7003;32029;51.358;5.628;2024-01-06T06:02:02;9.00;9.00;6.00
46302;PMS7003;32029;51.358;5.628;2024-01-06T06:04:30;10.67;10.67;7.00
46302;PMS7003;32029;51.358;5.628;2024-01-06T06:06:57;11.40;11.40;7.00
46302;PMS7003;32029;51.358;5.628;2024-01-06T06:09:24;10.67;10.67;6.00
46302;PMS7003;32029;51.358;5.628;2024-01-06T06:11:51;13.33;9.67;9.00
46302;PMS7003;32029;51.358;5.628;2024-01-06T06:14:18;10.00;10.00;6.67
46302;PMS7003;32029;51.358;5.628;2024-01-06T06:16:46;14.20;12.80;9.00
46302;PMS7003;32029;51.358;5.628;2024-01-06T06:19:14;10.33;10.33;7.00
46302;PMS7003;32029;51.358;5.628;2024-01-06T06:21:41;18.00;15.00;9.00
46302;PMS7003;32029;51.358;5.628;2024-01-06T06:24:07;14.33;10.67;7.00
46302;PMS7003;32029;51.358;5.628;2024-01-06T06:26:34;16.33;12.67;7.00
46302;PMS7003;32029;51.358;5.628;2024-01-06T06:29:01;11.00;11.00;9.00
46302;PMS7003;32029;51.358;5.628;2024-01-06T06:31:28;7.67;7.67;7.00
46302;PMS7003;32029;51.358;5.628;2024-01-06T06:33:54;9.67;9.00;7.00
46302;PMS7003;32029;51.358;5.628;2024-01-06T06:36:22;9.80;9.80;9.00
46302;PMS7003;32029;51.358;5.628;2024-01-06T06:38:50;7.40;7.40;6.40
46302;PMS7003;32029;51.358;5.628;2024-01-06T06:41:17;10.67;10.67;7.67
46302;PMS7003;32029;51.358;5.628;2024-01-06T06:43:45;10.20;10.20;7.20
46302;PMS7003;32029;51.358;5.628;2024-01-06T06:46:12;11.00;10.00;9.00
46302;PMS7003;32029;51.358;5.628;2024-01-06T06:48:39;12.60;11.00;8.20
46302;PMS7003;32029;51.358;5.628;2024-01-06T06:51:06;9.67;9.67;6.00
46302;PMS7003;32029;51.358;5.628;2024-01-06T06:53:33;11.33;7.67;7.00
46302;PMS7003;32029;51.358;5.628;2024-01-06T06:56:00;11.00;11.00;7.00
46302;PMS7003;32029;51.358;5.628;2024-01-06T06:58:27;11.00;10.00;8.33
46302;PMS7003;32029;51.358;5.628;2024-01-06T07:00:54;15.33;12.33;7.00
46302;PMS7003;32029;51.358;5.628;2024-01-06T07:03:20;11.00;9.00;7.00
46302;PMS7003;32029;51.358;5.628;2024-01-06T07:05:47;13.33;12.33;7.00
46302;PMS7003;32029;51.358;5.628;2024-01-06T07:08:15;6.80;6.80;3.00
46302;PMS7003;32029;51.358;5.628;2024-01-06T07:10:42;14.67;12.33;9.00
46302;PMS7003;32029;51.358;5.628;2024-01-06T07:13:10;13.00;11.00;8.20
46302;PMS7003;32029;51.358;5.628;2024-01-06T07:15:37;13.67;12.33;8.33
46302;PMS7003;32029;51.358;5.628;2024-01-06T07:18:03;13.33;10.67;6.67
46302;PMS7003;32029;51.358;5.628;2024-01-06T07:20:30;10.33;10.33;7.00
46302;PMS7003;32029;51.358;5.628;2024-01-06T07:22:57;13.67;11.00;7.00
46302;PMS7003;32029;51.358;5.628;2024-01-06T07:25:25;12.40;10.00;8.20
46302;PMS7003;32029;51.358;5.628;2024-01-06T07:27:53;9.80;9.00;6.40
46302;PMS7003;32029;51.358;5.628;2024-01-06T07:30:20;9.67;5.67;5.00
46302;PMS7003;32029;51.358;5.628;2024-01-06T07:32:47;8.33;8.33;5.00
46302;PMS7003;32029;51.358;5.628;2024-01-06T07:35:15;7.00;7.00;5.67
46302;PMS7003;32029;51.358;5.628;2024-01-06T07:37:45;6.43;6.43;5.57
46302;PMS7003;32029;51.358;5.628;2024-01-06T07:40:13;11.00;9.60;6.00
46302;PMS7003;32029;51.358;5.628;2024-01-06T07:42:43;12.00;10.33;7.00
46302;PMS7003;32029;51.358;5.628;2024-01-06T07:45:11;8.80;7.80;6.00
46302;PMS7003;32029;51.358;5.628;2024-01-06T07:47:40;7.60;7.60;5.20
46302;PMS7003;32029;51.358;5.628;2024-01-06T07:50:07;10.00;10.00;6.00
46302;PMS7003;32029;51.358;5.628;2024-01-06T07:52:36;10.20;7.80;4.60
46302;PMS7003;32029;51.358;5.628;2024-01-06T07:55:04;9.50;9.50;6.75
46302;PMS7003;32029;51.358;5.628;2024-01-06T07:57:31;9.00;9.00;6.00
46302;PMS7003;32029;51.358;5.628;2024-01-06T07:59:59;9.80;9.40;6.40
46302;PMS7003;32029;51.358;5.628;2024-01-06T08:02:27;15.33;10.67;7.00
46302;PMS7003;32029;51.358;5.628;2024-01-06T08:04:55;10.00;9.80;6.00
46302;PMS7003;32029;51.358;5.628;2024-01-06T08:07:23;11.60;10.00;5.00
46302;PMS7003;32029;51.358;5.628;2024-01-06T08:09:50;9.00;7.00;5.00
46302;PMS7003;32029;51.358;5.628;2024-01-06T08:12:16;10.33;9.00;6.00
46302;PMS7003;32029;51.358;5.628;2024-01-06T08:14:43;15.33;11.00;6.00
46302;PMS7003;32029;51.358;5.628;2024-01-06T08:17:10;8.33;8.33;6.00
46302;PMS7003;32029;51.358;5.628;2024-01-06T08:19:37;11.67;9.00;5.67
46302;PMS7003;32029;51.358;5.628;2024-01-06T08:22:05;14.67;14.67;10.00
46302;PMS7003;32029;51.358;5.628;2024-01-06T08:24:31;20.33;16.33;9.67
46302;PMS7003;32029;51.358;5.628;2024-01-06T08:26:58;14.67;14.67;9.00
46302;PMS7003;32029;51.358;5.628;2024-01-06T08:29:25;15.00;12.33;7.00
46302;PMS7003;32029;51.358;5.628;2024-01-06T08:31:53;19.33;18.00;10.00
46302;PMS7003;32029;51.358;5.628;2024-01-06T08:34:20;19.50;15.00;9.50
46302;PMS7003;32029;51.358;5.628;2024-01-06T08:36:49;17.17;14.83;9.00
46302;PMS7003;32029;51.358;5.628;2024-01-06T08:39:17;13.00;11.00;9.33
46302;PMS7003;32029;51.358;5.628;2024-01-06T08:41:45;14.33;13.00;9.00
46302;PMS7003;32029;51.358;5.628;2024-01-06T08:44:12;14.00;14.00;9.67
46302;PMS7003;32029;51.358;5.628;2024-01-06T08:46:39;17.67;13.00;9.00
46302;PMS7003;32029;51.358;5.628;2024-01-06T08:49:06;15.67;13.00;9.00
46302;PMS7003;32029;51.358;5.628;2024-01-06T08:51:34;14.00;12.80;9.00
46302;PMS7003;32029;51.358;5.628;2024-01-06T08:54:02;12.67;11.67;9.00
46302;PMS7003;32029;51.358;5.628;2024-01-06T08:56:34;15.33;14.33;10.00
46302;PMS7003;32029;51.358;5.628;2024-01-06T08:59:02;16.20;13.20;7.20
46302;PMS7003;32029;51.358;5.628;2024-01-06T09:01:30;13.40;12.80;8.00
46302;PMS7003;32029;51.358;5.628;2024-01-06T09:03:58;18.33;14.33;7.00
46302;PMS7003;32029;51.358;5.628;2024-01-06T09:06:24;14.33;13.67;9.00
46302;PMS7003;32029;51.358;5.628;2024-01-06T09:08:53;18.00;15.33;9.17
46302;PMS7003;32029;51.358;5.628;2024-01-06T09:11:21;14.20;12.80;5.60
46302;PMS7003;32029;51.358;5.628;2024-01-06T09:13:48;15.00;15.00;9.00
46302;PMS7003;32029;51.358;5.628;2024-01-06T09:16:15;14.33;14.33;10.00
46302;PMS7003;32029;51.358;5.628;2024-01-06T09:18:42;12.67;11.67;7.67
46302;PMS7003;32029;51.358;5.628;2024-01-06T09:21:09;18.67;12.33;10.00
46302;PMS7003;32029;51.358;5.628;2024-01-06T09:23:36;12.00;12.00;9.00
46302;PMS7003;32029;51.358;5.628;2024-01-06T09:26:03;11.00;11.00;7.67
46302;PMS7003;32029;51.358;5.628;2024-01-06T09:28:29;17.33;14.00;9.00
46302;PMS7003;32029;51.358;5.628;2024-01-06T09:30:56;14.33;14.33;9.00
46302;PMS7003;32029;51.358;5.628;2024-01-06T09:33:23;13.00;13.00;9.00
46302;PMS7003;32029;51.358;5.628;2024-01-06T09:35:50;13.67;13.67;9.67
46302;PMS7003;32029;51.358;5.628;2024-01-06T09:38:17;13.33;13.33;9.00
46302;PMS7003;32029;51.358;5.628;2024-01-06T09:40:44;16.00;14.33;9.67
46302;PMS7003;32029;51.358;5.628;2024-01-06T09:43:14;16.33;14.33;10.00
46302;PMS7003;32029;51.358;5.628;2024-01-06T09:45:41;14.67;11.00;8.33
46302;PMS7003;32029;51.358;5.628;2024-01-06T09:48:12;15.00;15.00;10.67
46302;PMS7003;32029;51.358;5.628;2024-01-06T09:50:43;17.67;14.67;8.33
46302;PMS7003;32029;51.358;5.628;2024-01-06T09:53:13;19.33;15.33;10.33
46302;PMS7003;32029;51.358;5.628;2024-01-06T09:55:40;15.67;15.67;9.67
46302;PMS7003;32029;51.358;5.628;2024-01-06T09:58:09;15.67;14.00;10.33
46302;PMS7003;32029;51.358;5.628;2024-01-06T10:00:36;23.33;22.67;11.00
46302;PMS7003;32029;51.358;5.628;2024-01-06T10:03:04;14.80;13.00;6.80
46302;PMS7003;32029;51.358;5.628;2024-01-06T10:05:35;19.00;18.33;10.00
46302;PMS7003;32029;51.358;5.628;2024-01-06T10:08:02;18.33;16.33;11.00
46302;PMS7003;32029;51.358;5.628;2024-01-06T10:10:30;18.67;15.67;10.33
46302;PMS7003;32029;51.358;5.628;2024-01-06T10:13:00;17.00;15.00;9.00
46302;PMS7003;32029;51.358;5.628;2024-01-06T10:15:27;15.33;15.00;10.00
46302;PMS7003;32029;51.358;5.628;2024-01-06T10:17:54;22.00;13.33;6.67
46302;PMS7003;32029;51.358;5.628;2024-01-06T10:20:21;22.33;19.00;13.00
46302;PMS7003;32029;51.358;5.628;2024-01-06T10:22:48;18.33;17.33;11.00
46302;PMS7003;32029;51.358;5.628;2024-01-06T10:25:14;16.00;15.00;11.00
46302;PMS7003;32029;51.358;5.628;2024-01-06T10:27:42;21.33;21.33;14.00
46302;PMS7003;32029;51.358;5.628;2024-01-06T10:30:09;14.00;12.67;7.67
46302;PMS7003;32029;51.358;5.628;2024-01-06T10:32:36;20.00;20.00;11.67
46302;PMS7003;32029;51.358;5.628;2024-01-06T10:35:04;22.00;18.67;13.00
46302;PMS7003;32029;51.358;5.628;2024-01-06T10:37:33;14.00;14.00;10.33
46302;PMS7003;32029;51.358;5.628;2024-01-06T10:40:09;21.00;18.67;13.00
46302;PMS7003;32029;51.358;5.628;2024-01-06T10:42:38;22.00;21.33;11.00
46302;PMS7003;32029;51.358;5.628;2024-01-06T10:45:06;24.33;20.00;11.67
46302;PMS7003;32029;51.358;5.628;2024-01-06T10:47:36;14.33;13.67;6.67
46302;PMS7003;32029;51.358;5.628;2024-01-06T10:50:03;18.67;16.67;10.67
46302;PMS7003;32029;51.358;5.628;2024-01-06T10:52:31;17.33;17.00;10.33
46302;PMS7003;32029;51.358;5.628;2024-01-06T10:55:01;18.86;16.57;11.29
46302;PMS7003;32029;51.358;5.628;2024-01-06T10:57:29;17.33;17.33;11.00
46302;PMS7003;32029;51.358;5.628;2024-01-06T10:59:58;18.00;14.00;9.00
46302;PMS7003;32029;51.358;5.628;2024-01-06T11:02:26;19.00;18.00;10.33
46302;PMS7003;32029;51.358;5.628;2024-01-06T11:04:54;19.33;15.67;9.00
46302;PMS7003;32029;51.358;5.628;2024-01-06T11:07:21;17.67;17.67;13.00
46302;PMS7003;32029;51.358;5.628;2024-01-06T11:09:56;17.67;16.33;10.33
46302;PMS7003;32029;51.358;5.628;2024-01-06T11:12:26;14.67;14.67;11.00
46302;PMS7003;32029;51.358;5.628;2024-01-06T11:14:52;15.67;15.00;9.00
46302;PMS7003;32029;51.358;5.628;2024-01-06T11:20:15;14.67;14.00;10.00
46302;PMS7003;32029;51.358;5.628;2024-01-06T11:22:43;17.67;16.67;11.00
46302;PMS7003;32029;51.358;5.628;2024-01-06T11:25:15;18.33;15.67;10.67
46302;PMS7003;32029;51.358;5.628;2024-01-06T11:27:48;46.25;41.75;26.50
46302;PMS7003;32029;51.358;5.628;2024-01-06T11:30:34;17.00;15.67;11.00
46302;PMS7003;32029;51.358;5.628;2024-01-06T11:33:02;20.67;20.67;11.67
46302;PMS7003;32029;51.358;5.628;2024-01-06T11:35:31;19.50;19.00;11.00
46302;PMS7003;32029;51.358;5.628;2024-01-06T11:38:01;17.67;16.67;10.00
46302;PMS7003;32029;51.358;5.628;2024-01-06T11:40:31;21.00;19.00;13.33
46302;PMS7003;32029;51.358;5.628;2024-01-06T11:43:07;18.50;17.00;13.50
46302;PMS7003;32029;51.358;5.628;2024-01-06T11:45:36;22.00;18.00;14.00
46302;PMS7003;32029;51.358;5.628;2024-01-06T11:48:04;21.33;19.67;13.00
46302;PMS7003;32029;51.358;5.628;2024-01-06T11:50:33;25.50;19.00;13.00
46302;PMS7003;32029;51.358;5.628;2024-01-06T11:53:03;23.50;23.00;13.00
46302;PMS7003;32029;51.358;5.628;2024-01-06T11:55:31;20.50;19.00;13.00
46302;PMS7003;32029;51.358;5.628;2024-01-06T11:57:58;16.33;13.00;9.00
46302;PMS7003;32029;51.358;5.628;2024-01-06T12:00:29;21.33;20.67;13.33
46302;PMS7003;32029;51.358;5.628;2024-01-06T12:02:57;19.00;18.67;11.67
46302;PMS7003;32029;51.358;5.628;2024-01-06T12:05:25;21.00;19.00;12.00
46302;PMS7003;32029;51.358;5.628;2024-01-06T12:07:56;18.33;16.67;10.33
46302;PMS7003;32029;51.358;5.628;2024-01-06T12:10:25;15.00;13.67;8.33
46302;PMS7003;32029;51.358;5.628;2024-01-06T12:13:00;26.33;18.67;10.00
46302;PMS7003;32029;51.358;5.628;2024-01-06T12:15:29;17.00;13.33;7.67
46302;PMS7003;32029;51.358;5.628;2024-01-06T12:17:57;18.00;18.00;11.67
46302;PMS7003;32029;51.358;5.628;2024-01-06T12:20:25;19.00;15.00;10.33
46302;PMS7003;32029;51.358;5.628;2024-01-06T12:22:53;20.00;18.00;11.00
46302;PMS7003;32029;51.358;5.628;2024-01-06T12:25:20;18.67;16.33;12.33
46302;PMS7003;32029;51.358;5.628;2024-01-06T12:27:48;16.33;14.67;11.00
46302;PMS7003;32029;51.358;5.628;2024-01-06T12:30:16;18.00;15.67;10.00
46302;PMS7003;32029;51.358;5.628;2024-01-06T12:32:45;18.33;17.33;13.00
46302;PMS7003;32029;51.358;5.628;2024-01-06T12:35:15;15.33;14.67;7.00
46302;PMS7003;32029;51.358;5.628;2024-01-06T12:37:42;22.33;18.00;10.67
46302;PMS7003;32029;51.358;5.628;2024-01-06T12:40:11;18.00;16.67;10.33
46302;PMS7003;32029;51.358;5.628;2024-01-06T12:42:39;15.67;14.33;10.33
46302;PMS7003;32029;51.358;5.628;2024-01-06T12:45:07;15.00;13.00;10.00
46302;PMS7003;32029;51.358;5.628;2024-01-06T12:47:34;16.67;15.00;10.33
46302;PMS7003;32029;51.358;5.628;2024-01-06T12:50:01;15.33;13.67;9.00
46302;PMS7003;32029;51.358;5.628;2024-01-06T12:52:28;16.67;15.33;10.00
46302;PMS7003;32029;51.358;5.628;2024-01-06T12:54:54;19.00;19.00;13.00
46302;PMS7003;32029;51.358;5.628;2024-01-06T12:57:21;15.33;14.00;11.00
46302;PMS7003;32029;51.358;5.628;2024-01-06T12:59:48;17.67;17.67;12.67
46302;PMS7003;32029;51.358;5.628;2024-01-06T13:02:15;19.33;15.00;10.33
46302;PMS7003;32029;51.358;5.628;2024-01-06T13:04:42;21.33;20.67;13.00
46302;PMS7003;32029;51.358;5.628;2024-01-06T13:07:09;17.67;16.33;12.33
46302;PMS7003;32029;51.358;5.628;2024-01-06T13:09:38;15.67;15.67;12.33
46302;PMS7003;32029;51.358;5.628;2024-01-06T13:12:05;18.00;15.67;9.67
46302;PMS7003;32029;51.358;5.628;2024-01-06T13:14:33;17.67;15.00;11.00
46302;PMS7003;32029;51.358;5.628;2024-01-06T13:17:00;16.67;14.33;10.00
46302;PMS7003;32029;51.358;5.628;2024-01-06T13:19:27;15.67;15.67;13.00
46302;PMS7003;32029;51.358;5.628;2024-01-06T13:21:54;18.00;18.00;13.00
46302;PMS7003;32029;51.358;5.628;2024-01-06T13:24:21;15.00;14.00;9.67
46302;PMS7003;32029;51.358;5.628;2024-01-06T13:26:48;19.00;16.00;11.00
46302;PMS7003;32029;51.358;5.628;2024-01-06T13:29:15;21.33;19.67;13.67
46302;PMS7003;32029;51.358;5.628;2024-01-06T13:31:42;17.00;15.00;11.00
46302;PMS7003;32029;51.358;5.628;2024-01-06T13:34:09;13.33;13.33;10.00
46302;PMS7003;32029;51.358;5.628;2024-01-06T13:36:36;14.67;13.33;9.00
46302;PMS7003;32029;51.358;5.628;2024-01-06T13:39:03;16.33;16.33;10.33
46302;PMS7003;32029;51.358;5.628;2024-01-06T13:41:30;17.33;17.00;11.67
46302;PMS7003;32029;51.358;5.628;2024-01-06T13:44:00;20.33;16.33;12.00
46302;PMS7003;32029;51.358;5.628;2024-01-06T13:46:27;21.33;20.00;11.67
46302;PMS7003;32029;51.358;5.628;2024-01-06T13:48:54;17.33;17.00;10.00
46302;PMS7003;32029;51.358;5.628;2024-01-06T13:51:21;22.00;19.00;13.67
46302;PMS7003;32029;51.358;5.628;2024-01-06T13:53:49;18.00;17.33;10.33
46302;PMS7003;32029;51.358;5.628;2024-01-06T13:56:16;21.00;19.00;14.00